< < Back
Terminal Aerodrome Forecast


Current Version              Previous Versions:   1  2  3  4  5  6  7  8  9  

Terminal Aerodrome Forecast

287
FTUS42 KMLB 311128
TAFDAB
TAF
KDAB 311128Z 3112/0112 24003KT P6SM FEW050
     FM311400 28007KT P6SM FEW040 SCT250
     FM312000 24009KT P6SM SCT050 SCT250
     FM010000 25004KT P6SM FEW070 SCT250=

Latest METAR

895
SAUS80 KWBC 010500 RRH
MTRDAB
METAR KDAB 010453Z 23005KT 10SM CLR 18/17 A3009 RMK AO2 SLP188 T01780167
402830133


USA.gov is the U.S. government's official web portal to all federal, state and local government web resources and services.